Time;durP1;ratioP1;P1;durP2;ratioP2;P2;SDS_P1;SDS_P2;PMS_P1;PMS_P2;Temp;Humidity;BMP_temperature;BMP_pressure;BME280_temperature;BME280_humidity;BME280_pressure;Samples;Min_cycle;Max_cycle;Signal;HPM_P1;HPM_P2
2023/11/18 00:03:37;;;;;;;6.53;3.08;;;9.10;99.90;;;;;;10094415;28;20028;-65
2023/11/18 00:08:27;;;;;;;3.92;3.03;;;9.10;99.90;;;;;;10093067;28;20033;-66
2023/11/18 00:13:18;;;;;;;5.40;3.30;;;9.20;99.90;;;;;;10093970;28;20025;-66
2023/11/18 00:18:09;;;;;;;4.97;3.33;;;9.10;99.90;;;;;;10093351;28;20060;-65
2023/11/18 00:23:00;;;;;;;4.40;3.03;;;9.20;99.90;;;;;;10093890;28;20419;-67
2023/11/18 00:27:51;;;;;;;4.93;3.45;;;9.10;99.90;;;;;;10084335;28;20041;-69
2023/11/18 00:32:42;;;;;;;4.78;3.30;;;9.10;99.90;;;;;;10092972;28;20518;-68
2023/11/18 00:37:33;;;;;;;5.57;3.55;;;9.00;99.90;;;;;;10084695;28;20099;-68
2023/11/18 00:42:25;;;;;;;4.80;3.15;;;8.90;99.90;;;;;;10077434;28;20039;-68
2023/11/18 00:47:15;;;;;;;9.73;3.80;;;8.90;99.90;;;;;;10093754;28;20021;-67
2023/11/18 00:52:06;;;;;;;5.45;3.42;;;9.00;99.90;;;;;;10098304;28;20025;-67
2023/11/18 00:56:57;;;;;;;4.75;3.25;;;8.80;99.90;;;;;;10082567;28;20056;-68
2023/11/18 01:01:48;;;;;;;6.35;3.92;;;8.90;99.90;;;;;;10100295;28;20051;-67
2023/11/18 01:06:39;;;;;;;5.13;3.30;;;8.90;99.90;;;;;;10100195;28;20029;-67
2023/11/18 01:11:30;;;;;;;5.20;3.30;;;9.00;99.90;;;;;;10102267;28;20850;-67
2023/11/18 01:16:20;;;;;;;6.07;3.20;;;9.00;99.90;;;;;;10099635;28;20077;-67
2023/11/18 01:21:12;;;;;;;4.80;3.45;;;9.00;99.90;;;;;;10096544;28;20087;-68
2023/11/18 01:26:04;;;;;;;7.03;4.07;;;9.00;99.90;;;;;;10090216;28;20376;-67
2023/11/18 01:30:55;;;;;;;6.82;4.78;;;9.00;99.90;;;;;;10090927;28;20041;-68
2023/11/18 01:35:46;;;;;;;6.32;4.18;;;8.90;99.90;;;;;;10095069;28;20056;-67
2023/11/18 01:40:36;;;;;;;5.28;3.30;;;8.90;99.90;;;;;;10096093;28;20506;-68
2023/11/18 01:45:27;;;;;;;7.22;3.95;;;8.90;99.90;;;;;;10097510;28;20025;-68
2023/11/18 01:50:18;;;;;;;6.45;4.07;;;8.80;99.90;;;;;;10098738;28;20025;-67
2023/11/18 01:55:10;;;;;;;6.07;4.43;;;8.90;99.90;;;;;;10100939;28;20410;-67
2023/11/18 02:00:06;;;;;;;3.83;3.17;;;8.80;99.90;;;;;;10098675;28;20036;-67
2023/11/18 02:04:56;;;;;;;;;;;8.70;99.90;;;;;;10098382;28;20106;-68
2023/11/18 02:09:47;;;;;;;4.95;3.25;;;8.70;99.90;;;;;;10098196;28;20345;-68
2023/11/18 02:14:40;;;;;;;7.15;4.00;;;8.70;99.90;;;;;;10096666;28;20494;-68
2023/11/18 02:19:31;;;;;;;5.85;3.60;;;8.70;99.90;;;;;;10093417;28;20041;-67
2023/11/18 02:24:36;;;;;;;5.15;3.67;;;8.60;99.90;;;;;;10079598;28;20041;-68
2023/11/18 02:29:35;;;;;;;6.63;3.95;;;8.60;99.90;;;;;;10097769;28;20083;-67
2023/11/18 02:34:31;;;;;;;5.07;2.95;;;8.60;99.90;;;;;;10097103;28;20049;-67
2023/11/18 02:39:28;;;;;;;6.75;3.97;;;8.50;99.90;;;;;;10079110;28;20582;-68
2023/11/18 02:44:23;;;;;;;5.68;3.03;;;8.50;99.90;;;;;;10079070;28;20581;-67
2023/11/18 02:49:13;;;;;;;4.50;3.70;;;8.50;99.90;;;;;;10096239;28;20410;-67
2023/11/18 02:54:06;;;;;;;5.90;4.05;;;8.60;99.90;;;;;;10096652;28;20108;-67
2023/11/18 02:58:57;;;;;;;7.38;3.53;;;8.50;99.90;;;;;;10089847;28;20032;-66
2023/11/18 03:03:48;;;;;;;4.70;3.42;;;8.50;99.90;;;;;;10096642;28;20025;-67
2023/11/18 03:08:41;;;;;;;5.35;3.28;;;8.50;99.90;;;;;;10095622;28;20108;-68
2023/11/18 03:13:32;;;;;;;4.40;2.90;;;8.50;99.90;;;;;;10096342;28;20087;-68
2023/11/18 03:18:22;;;;;;;4.20;2.25;;;8.50;99.90;;;;;;10092111;28;20387;-68
2023/11/18 03:23:13;;;;;;;6.40;3.65;;;8.50;99.90;;;;;;10095974;28;20413;-67
2023/11/18 03:28:06;;;;;;;5.88;3.88;;;8.40;99.90;;;;;;10095252;28;20086;-67
2023/11/18 03:32:56;;;;;;;6.22;3.40;;;8.40;99.90;;;;;;10094517;28;20048;-67
2023/11/18 03:37:47;;;;;;;5.47;3.67;;;8.40;99.90;;;;;;10094642;28;20025;-67
2023/11/18 03:42:39;;;;;;;4.50;3.13;;;8.40;99.90;;;;;;10095469;28;20411;-69
2023/11/18 03:47:30;;;;;;;6.93;3.25;;;8.40;99.90;;;;;;10094804;28;20032;-67
2023/11/18 03:52:22;;;;;;;5.82;3.17;;;8.30;99.90;;;;;;10092677;28;20641;-68
2023/11/18 03:57:12;;;;;;;4.50;3.15;;;8.30;99.90;;;;;;10094408;28;20517;-68
2023/11/18 04:02:03;;;;;;;4.95;3.00;;;8.30;99.90;;;;;;10096632;28;20025;-68
2023/11/18 04:06:55;;;;;;;5.65;2.55;;;8.30;99.90;;;;;;10093337;28;20035;-68
2023/11/18 04:11:46;;;;;;;5.80;3.78;;;8.30;99.90;;;;;;10093145;28;20040;-68
2023/11/18 04:16:37;;;;;;;3.97;2.70;;;8.20;99.90;;;;;;10081928;28;20034;-66
2023/11/18 04:21:28;;;;;;;5.05;2.85;;;8.20;99.90;;;;;;10090241;28;20115;-68
2023/11/18 04:26:19;;;;;;;7.57;2.83;;;8.20;99.90;;;;;;10095915;28;20090;-67
2023/11/18 04:31:09;;;;;;;4.18;2.58;;;8.20;99.90;;;;;;10101552;28;20033;-67
2023/11/18 04:36:02;;;;;;;4.78;3.08;;;8.20;99.90;;;;;;10101971;28;20052;-67
2023/11/18 04:40:56;;;;;;;4.85;3.28;;;8.20;99.90;;;;;;10100313;28;20033;-71
2023/11/18 04:45:47;;;;;;;4.15;2.75;;;8.20;99.90;;;;;;10101495;28;20471;-67
2023/11/18 04:50:39;;;;;;;4.15;2.70;;;8.20;99.90;;;;;;10099005;28;20073;-68
2023/11/18 04:55:30;;;;;;;5.78;2.72;;;8.10;99.90;;;;;;10101575;28;20347;-68
2023/11/18 05:00:21;;;;;;;5.47;2.65;;;8.10;99.90;;;;;;10100359;28;20041;-69
2023/11/18 05:05:12;;;;;;;5.35;3.22;;;8.10;99.90;;;;;;10100868;28;20020;-67
2023/11/18 05:10:03;;;;;;;8.60;3.22;;;8.00;99.90;;;;;;10100156;28;20124;-67
2023/11/18 05:14:55;;;;;;;4.93;2.78;;;8.10;99.90;;;;;;10101271;28;20017;-67
2023/11/18 05:19:46;;;;;;;4.72;2.35;;;8.00;99.90;;;;;;10098334;28;20033;-67
2023/11/18 05:24:37;;;;;;;3.70;2.80;;;7.90;99.90;;;;;;10100282;28;20025;-67
2023/11/18 05:29:28;;;;;;;6.05;3.05;;;8.00;99.90;;;;;;10099193;28;20085;-67
2023/11/18 05:34:20;;;;;;;5.25;2.80;;;8.00;99.90;;;;;;10098560;28;20086;-68
2023/11/18 05:39:11;;;;;;;5.07;2.95;;;7.90;99.90;;;;;;10097227;28;20039;-67
2023/11/18 05:44:01;;;;;;;4.78;3.10;;;7.90;99.90;;;;;;10098873;28;20021;-67
2023/11/18 05:48:53;;;;;;;4.20;2.55;;;8.00;99.90;;;;;;10098473;28;20522;-68
2023/11/18 05:53:47;;;;;;;4.63;2.88;;;8.00;99.90;;;;;;10098934;28;20053;-68
2023/11/18 05:58:40;;;;;;;5.60;2.92;;;8.00;99.90;;;;;;10098731;28;20028;-68
2023/11/18 06:03:31;;;;;;;6.43;3.30;;;8.00;99.90;;;;;;10089926;28;20032;-68
2023/11/18 06:08:22;;;;;;;5.18;3.08;;;8.00;99.90;;;;;;10097927;28;20044;-67
2023/11/18 06:13:13;;;;;;;4.72;3.08;;;7.90;99.90;;;;;;10098277;28;20518;-68
2023/11/18 06:18:05;;;;;;;6.07;3.55;;;7.90;99.90;;;;;;10095285;28;20041;-69
2023/11/18 06:22:57;;;;;;;5.43;3.20;;;7.90;99.90;;;;;;10097674;28;20081;-68
2023/11/18 06:27:47;;;;;;;6.57;3.50;;;7.90;99.90;;;;;;10097446;28;20069;-67
2023/11/18 06:32:38;;;;;;;4.00;2.80;;;8.00;99.90;;;;;;10097046;28;20552;-69
2023/11/18 06:37:33;;;;;;;4.40;2.40;;;8.00;99.90;;;;;;10097271;28;20104;-67
2023/11/18 06:42:24;;;;;;;3.78;2.70;;;8.00;99.90;;;;;;10096405;28;20110;-67
2023/11/18 06:47:18;;;;;;;4.78;2.55;;;7.90;99.90;;;;;;10096895;28;20017;-67
2023/11/18 06:52:12;;;;;;;4.93;2.70;;;7.90;99.90;;;;;;10095704;28;20033;-68
2023/11/18 06:57:03;;;;;;;4.45;2.92;;;7.80;99.90;;;;;;10090036;28;20115;-66
2023/11/18 07:01:54;;;;;;;2.65;1.92;;;7.90;99.90;;;;;;10079650;28;20151;-67
2023/11/18 07:06:44;;;;;;;6.35;2.70;;;7.90;99.90;;;;;;10093188;28;20033;-67
2023/11/18 07:11:35;;;;;;;4.38;2.58;;;8.00;99.90;;;;;;10087863;28;20033;-68
2023/11/18 07:16:26;;;;;;;4.38;2.65;;;8.00;99.90;;;;;;10094535;28;20028;-68
2023/11/18 07:21:17;;;;;;;5.05;2.60;;;8.00;99.90;;;;;;10093838;28;20039;-68
2023/11/18 07:26:09;;;;;;;3.63;2.28;;;8.00;99.90;;;;;;10095613;28;20031;-68
2023/11/18 07:31:04;;;;;;;4.00;2.53;;;8.00;99.90;;;;;;10097091;28;20029;-68
2023/11/18 07:35:55;;;;;;;3.03;2.38;;;8.00;99.90;;;;;;10094809;28;20049;-68
2023/11/18 07:40:46;;;;;;;3.78;2.13;;;8.00;99.90;;;;;;10094281;28;20033;-67
2023/11/18 07:45:38;;;;;;;2.33;2.13;;;8.10;99.90;;;;;;10095211;28;20156;-67
2023/11/18 07:50:28;;;;;;;2.90;2.25;;;8.10;99.90;;;;;;10094488;28;20052;-67
2023/11/18 07:55:19;;;;;;;2.33;1.67;;;8.10;99.90;;;;;;10094882;28;20044;-67
2023/11/18 08:00:10;;;;;;;2.88;1.92;;;8.10;99.90;;;;;;10096349;28;20033;-68
2023/11/18 08:05:02;;;;;;;3.72;2.20;;;8.10;99.90;;;;;;10104025;28;20023;-68
2023/11/18 08:09:53;;;;;;;3.28;2.05;;;8.20;99.90;;;;;;10102631;28;20055;-67
2023/11/18 08:14:44;;;;;;;2.50;2.25;;;8.20;99.90;;;;;;10101989;28;20053;-68
2023/11/18 08:19:35;;;;;;;2.80;1.90;;;8.20;99.90;;;;;;10095639;28;20068;-67
2023/11/18 08:24:26;;;;;;;3.17;2.08;;;8.30;99.90;;;;;;10082152;28;20045;-68
2023/11/18 08:29:17;;;;;;;3.83;2.38;;;8.50;99.90;;;;;;10101385;28;20576;-68
2023/11/18 08:34:10;;;;;;;3.25;2.05;;;8.30;99.90;;;;;;10101653;28;20045;-69
2023/11/18 08:39:00;;;;;;;4.50;2.47;;;8.40;99.90;;;;;;10101149;28;20040;-67
2023/11/18 08:43:52;;;;;;;4.68;1.92;;;8.40;99.90;;;;;;10101595;28;20089;-67
2023/11/18 08:48:44;;;;;;;3.47;2.05;;;8.40;99.90;;;;;;10100720;28;20024;-68
2023/11/18 08:53:40;;;;;;;2.85;1.50;;;8.40;99.90;;;;;;10101367;28;20112;-68
2023/11/18 08:58:34;;;;;;;4.30;1.90;;;8.40;99.90;;;;;;10100439;28;20323;-68
2023/11/18 09:03:27;;;;;;;2.45;1.40;;;8.40;99.90;;;;;;10100898;28;20029;-69
2023/11/18 09:08:19;;;;;;;3.20;1.70;;;8.50;99.90;;;;;;10082896;28;20570;-69
2023/11/18 09:13:11;;;;;;;2.90;1.35;;;8.60;99.90;;;;;;10100417;28;20032;-69
2023/11/18 09:18:02;;;;;;;3.22;1.75;;;8.60;99.90;;;;;;10078176;28;20033;-70
2023/11/18 09:22:55;;;;;;;3.75;1.67;;;8.60;99.90;;;;;;10099996;28;20029;-68
2023/11/18 09:27:46;;;;;;;2.95;1.80;;;8.70;99.90;;;;;;10100198;28;20049;-69
2023/11/18 09:32:39;;;;;;;3.10;1.67;;;8.60;99.90;;;;;;10099205;28;20056;-68
2023/11/18 09:37:29;;;;;;;3.85;2.10;;;8.60;99.90;;;;;;10078558;28;20021;-69
2023/11/18 09:42:22;;;;;;;4.10;1.40;;;8.70;99.90;;;;;;10086520;28;20106;-69
2023/11/18 09:47:16;;;;;;;2.05;1.30;;;8.80;99.90;;;;;;10095475;28;20103;-69
2023/11/18 09:52:07;;;;;;;2.75;1.80;;;8.90;99.90;;;;;;10090265;28;20162;-68
2023/11/18 09:57:25;;;;;;;5.63;2.90;;;8.90;99.90;;;;;;10093711;28;20041;-68
2023/11/18 10:02:18;;;;;;;3.78;2.53;;;9.00;99.90;;;;;;10096086;28;20518;-69
2023/11/18 10:07:11;;;;;;;3.28;2.20;;;8.80;99.90;;;;;;10098008;28;20149;-69
2023/11/18 10:12:05;;;;;;;2.30;1.58;;;8.80;99.90;;;;;;10098088;28;20028;-68
2023/11/18 10:16:57;;;;;;;2.88;1.40;;;8.90;99.90;;;;;;10093211;28;20060;-69
2023/11/18 10:21:51;;;;;;;2.58;1.88;;;8.90;99.90;;;;;;10093613;28;20532;-70
2023/11/18 10:26:45;;;;;;;4.90;1.92;;;9.00;99.90;;;;;;10095561;28;20408;-68
2023/11/18 10:31:37;;;;;;;2.42;1.88;;;9.00;99.90;;;;;;10096902;28;20348;-70
2023/11/18 10:36:28;;;;;;;3.50;1.73;;;9.00;99.90;;;;;;10097442;28;20047;-69
2023/11/18 10:41:19;;;;;;;3.97;1.90;;;9.00;99.90;;;;;;10097587;28;20025;-69
2023/11/18 10:46:14;;;;;;;2.58;1.15;;;9.00;99.90;;;;;;10096701;28;20513;-68
2023/11/18 10:51:06;;;;;;;2.55;1.58;;;9.00;99.90;;;;;;10096368;28;20040;-68
2023/11/18 10:55:57;;;;;;;3.38;1.80;;;9.10;99.90;;;;;;10096495;28;20032;-68
2023/11/18 11:00:55;;;;;;;3.03;1.58;;;9.10;99.90;;;;;;10091003;28;20407;-71
2023/11/18 11:05:46;;;;;;;1.63;1.20;;;9.10;99.90;;;;;;10090209;28;20017;-67
2023/11/18 11:10:41;;;;;;;4.05;2.05;;;9.00;99.90;;;;;;10094355;28;20021;-68
2023/11/18 11:15:34;;;;;;;3.33;1.48;;;9.00;99.90;;;;;;10094136;28;20013;-68
2023/11/18 11:25:23;;;;;;;2.35;1.77;;;9.10;99.90;;;;;;10096232;28;20033;-68
2023/11/18 11:30:22;;;;;;;2.80;1.98;;;9.10;99.90;;;;;;10095081;28;20021;-68
2023/11/18 11:35:22;;;;;;;4.38;2.30;;;9.00;99.90;;;;;;10076890;28;20045;-75
2023/11/18 11:40:21;;;;;;;4.25;1.92;;;9.10;99.90;;;;;;10094278;28;20521;-68
2023/11/18 11:45:19;;;;;;;4.70;2.78;;;9.10;99.90;;;;;;10091563;28;20032;-67
2023/11/18 11:50:21;;;;;;;3.25;1.95;;;9.00;99.90;;;;;;10076108;28;20119;-68
2023/11/18 11:55:36;;;;;;;5.32;2.35;;;9.10;99.90;;;;;;10094551;28;20108;-67
2023/11/18 12:00:34;;;;;;;3.60;1.77;;;9.10;99.90;;;;;;10074623;28;20044;-68
2023/11/18 12:05:26;;;;;;;4.75;2.80;;;9.10;99.90;;;;;;10094715;28;20668;-68
2023/11/18 12:10:21;;;;;;;4.47;2.67;;;9.10;99.90;;;;;;10094076;28;20516;-67
2023/11/18 12:15:12;;;;;;;4.00;2.30;;;9.10;99.90;;;;;;10090195;28;20027;-68
2023/11/18 12:20:18;;;;;;;5.00;2.17;;;9.10;99.90;;;;;;10089236;28;20045;-68
2023/11/18 12:25:14;;;;;;;3.42;1.88;;;9.10;99.90;;;;;;10098111;28;20024;-68
2023/11/18 12:30:29;;;;;;;3.47;1.65;;;9.20;99.90;;;;;;10079844;28;20509;-68
2023/11/18 12:35:22;;;;;;;5.53;2.53;;;9.20;99.90;;;;;;10090730;28;20098;-68
2023/11/18 12:40:24;;;;;;;3.28;2.35;;;9.10;99.90;;;;;;10093782;28;20472;-68
2023/11/18 12:45:32;;;;;;;3.40;2.30;;;9.10;99.90;;;;;;10094490;28;20112;-68
2023/11/18 12:50:24;;;;;;;4.93;2.75;;;9.20;99.90;;;;;;10100468;28;20595;-70
2023/11/18 12:55:18;;;;;;;3.67;2.17;;;9.20;99.90;;;;;;10100836;28;20029;-68
2023/11/18 13:00:12;;;;;;;6.05;2.42;;;9.30;99.90;;;;;;10100208;28;20029;-68
2023/11/18 13:05:09;;;;;;;3.67;2.58;;;9.30;99.90;;;;;;10100781;28;20023;-69
2023/11/18 13:09:59;;;;;;;3.45;2.30;;;9.30;99.90;;;;;;10091791;28;20029;-68
2023/11/18 13:14:51;;;;;;;6.57;2.58;;;9.30;99.90;;;;;;10099977;28;20044;-68
2023/11/18 13:19:47;;;;;;;6.78;2.28;;;9.40;99.90;;;;;;10095963;28;20187;-70
2023/11/18 13:24:45;;;;;;;4.78;2.53;;;9.40;99.90;;;;;;10081886;28;20100;-69
2023/11/18 13:29:39;;;;;;;2.85;1.85;;;9.40;99.90;;;;;;10082241;28;20033;-67
2023/11/18 13:34:37;;;;;;;6.60;2.22;;;9.40;99.90;;;;;;10099587;28;20068;-68
2023/11/18 13:39:28;;;;;;;3.25;2.42;;;9.40;99.90;;;;;;10081653;28;20122;-69
2023/11/18 13:44:35;;;;;;;3.63;2.88;;;9.40;99.90;;;;;;10099148;28;20610;-70
2023/11/18 13:49:33;;;;;;;4.85;2.03;;;9.50;99.90;;;;;;10091427;28;20187;-68
2023/11/18 13:54:25;;;;;;;5.07;2.50;;;9.50;99.90;;;;;;10095915;28;20163;-68
2023/11/18 13:59:16;;;;;;;3.35;1.98;;;9.50;99.90;;;;;;10096422;28;20025;-69
2023/11/18 14:04:06;;;;;;;3.67;1.90;;;9.50;99.90;;;;;;10097330;28;20108;-67
2023/11/18 14:08:57;;;;;;;4.55;2.10;;;9.50;99.90;;;;;;10098163;28;20033;-68
2023/11/18 14:13:48;;;;;;;4.65;2.58;;;9.50;99.90;;;;;;10097835;28;20467;-70
2023/11/18 14:18:41;;;;;;;4.22;2.55;;;9.60;99.90;;;;;;10075540;28;20056;-67
2023/11/18 14:23:31;;;;;;;3.67;2.30;;;9.60;99.90;;;;;;10098052;28;20036;-68
2023/11/18 14:28:26;;;;;;;3.42;2.15;;;9.60;99.90;;;;;;10097409;28;20029;-70
2023/11/18 14:33:16;;;;;;;5.70;2.40;;;9.50;99.90;;;;;;10100493;28;20047;-67
2023/11/18 14:38:08;;;;;;;3.60;2.00;;;9.50;99.90;;;;;;10097001;28;20039;-68
2023/11/18 14:43:01;;;;;;;3.53;1.80;;;9.50;99.90;;;;;;10097509;28;20064;-69
2023/11/18 14:47:52;;;;;;;3.00;2.03;;;9.50;99.90;;;;;;10097007;28;20029;-71
2023/11/18 14:52:58;;;;;;;4.47;2.50;;;9.50;99.90;;;;;;10096422;28;20036;-67
2023/11/18 14:57:50;;;;;;;3.72;2.30;;;9.60;99.90;;;;;;10096117;28;20017;-69
2023/11/18 15:02:41;;;;;;;6.38;2.92;;;9.60;99.90;;;;;;10096014;28;20036;-73
2023/11/18 15:07:31;;;;;;;3.28;2.67;;;9.60;99.90;;;;;;10095031;28;20064;-69
2023/11/18 15:12:22;;;;;;;4.80;2.65;;;9.60;99.90;;;;;;10094126;28;20036;-69
2023/11/18 15:17:13;;;;;;;4.35;2.67;;;9.60;99.90;;;;;;10091511;28;20025;-70
2023/11/18 15:22:04;;;;;;;5.88;2.60;;;9.60;99.90;;;;;;10096008;28;20033;-69
2023/11/18 15:26:55;;;;;;;4.15;3.05;;;9.50;99.90;;;;;;10096143;28;20040;-69
2023/11/18 15:31:46;;;;;;;3.50;2.13;;;9.60;99.90;;;;;;10095384;28;20031;-69
2023/11/18 15:36:42;;;;;;;3.42;2.28;;;9.60;99.90;;;;;;10095311;28;20080;-69
2023/11/18 15:41:35;;;;;;;2.92;1.77;;;9.70;99.90;;;;;;10096014;28;20036;-69
2023/11/18 15:46:26;;;;;;;5.25;2.28;;;9.60;99.90;;;;;;10094763;28;20021;-69
2023/11/18 15:51:19;;;;;;;3.65;1.88;;;9.60;99.90;;;;;;10095067;28;20281;-68
2023/11/18 15:56:11;;;;;;;3.42;1.50;;;9.60;99.90;;;;;;10084191;28;20052;-68
2023/11/18 16:01:02;;;;;;;2.67;1.48;;;9.50;99.90;;;;;;10093042;28;20039;-69
2023/11/18 16:05:54;;;;;;;3.55;1.98;;;9.60;99.90;;;;;;10093601;28;20639;-68
2023/11/18 16:10:48;;;;;;;4.45;2.20;;;9.60;99.90;;;;;;10094271;28;20033;-68
2023/11/18 16:15:39;;;;;;;2.80;1.85;;;9.60;99.90;;;;;;10091981;28;20021;-69
2023/11/18 16:20:34;;;;;;;3.17;1.73;;;9.60;99.90;;;;;;10092051;28;20044;-69
2023/11/18 16:25:30;;;;;;;3.80;1.92;;;9.60;99.90;;;;;;10102306;28;20594;-71
2023/11/18 16:30:24;;;;;;;3.30;2.00;;;9.70;99.90;;;;;;10096978;28;20087;-69
2023/11/18 16:35:16;;;;;;;3.38;1.63;;;9.60;99.90;;;;;;10079360;28;20503;-69
2023/11/18 16:40:13;;;;;;;3.70;2.00;;;9.70;99.90;;;;;;10071199;28;20040;-73
2023/11/18 16:45:04;;;;;;;5.80;1.98;;;9.60;99.90;;;;;;10099018;28;20025;-69
2023/11/18 16:49:55;;;;;;;3.15;2.13;;;9.60;99.90;;;;;;10097867;28;20037;-68
2023/11/18 16:54:46;;;;;;;3.10;1.80;;;9.60;99.90;;;;;;10101102;28;20419;-70
2023/11/18 16:59:36;;;;;;;2.65;1.70;;;9.60;99.90;;;;;;10093610;28;20033;-69
2023/11/18 17:04:27;;;;;;;4.25;1.98;;;9.70;99.90;;;;;;10099309;28;20036;-70
2023/11/18 17:09:18;;;;;;;4.75;1.80;;;9.70;99.90;;;;;;10096918;28;20013;-69
2023/11/18 17:14:09;;;;;;;4.43;1.73;;;9.70;99.90;;;;;;10092848;28;20155;-69
2023/11/18 17:18:59;;;;;;;1.92;1.23;;;9.70;99.90;;;;;;10093687;28;20388;-68
2023/11/18 17:23:50;;;;;;;3.33;1.90;;;9.70;99.90;;;;;;10094528;28;20029;-67
2023/11/18 17:28:41;;;;;;;2.83;1.90;;;9.70;99.90;;;;;;10098534;28;20029;-67
2023/11/18 17:33:31;;;;;;;2.25;1.60;;;9.70;99.90;;;;;;10099305;28;20056;-75
2023/11/18 17:38:22;;;;;;;4.15;1.90;;;9.70;99.90;;;;;;10100265;28;20152;-68
2023/11/18 17:43:13;;;;;;;6.55;1.85;;;9.70;99.90;;;;;;10099856;28;20029;-68
2023/11/18 17:48:06;;;;;;;2.55;1.85;;;9.80;99.90;;;;;;10098799;28;20021;-67
2023/11/18 17:52:57;;;;;;;4.05;2.22;;;9.80;99.90;;;;;;10095602;28;20021;-67
2023/11/18 17:57:48;;;;;;;3.40;2.35;;;9.80;99.90;;;;;;10085567;28;20744;-68
2023/11/18 18:02:39;;;;;;;2.92;1.77;;;9.70;99.90;;;;;;10082875;28;20036;-68
2023/11/18 18:07:30;;;;;;;2.65;2.30;;;9.70;99.90;;;;;;10097906;28;20033;-69
2023/11/18 18:12:21;;;;;;;2.13;1.85;;;9.80;99.90;;;;;;10094846;28;20032;-69
2023/11/18 18:17:12;;;;;;;2.45;1.73;;;9.70;99.90;;;;;;10091711;28;20025;-68
2023/11/18 18:22:03;;;;;;;4.47;1.90;;;9.80;99.90;;;;;;10094729;28;20041;-68
2023/11/18 18:26:54;;;;;;;5.03;2.00;;;9.80;99.90;;;;;;10093227;28;20044;-66
2023/11/18 18:31:45;;;;;;;2.80;1.88;;;9.80;99.90;;;;;;10094832;28;20043;-66
2023/11/18 18:36:36;;;;;;;3.00;1.67;;;9.80;99.90;;;;;;10096761;28;20506;-66
2023/11/18 18:41:27;;;;;;;3.65;1.88;;;9.80;99.90;;;;;;10094805;28;20035;-67
2023/11/18 18:46:17;;;;;;;2.45;1.50;;;9.90;99.90;;;;;;10094251;28;20033;-67
2023/11/18 18:51:09;;;;;;;6.50;2.90;;;9.80;99.90;;;;;;10100164;28;20112;-67
2023/11/18 18:56:00;;;;;;;3.95;2.00;;;9.90;99.90;;;;;;10095925;28;20387;-68
2023/11/18 19:00:52;;;;;;;2.85;2.10;;;9.80;99.90;;;;;;10087222;28;20041;-66
2023/11/18 19:05:43;;;;;;;3.45;1.63;;;9.90;99.90;;;;;;10090280;28;20029;-66
2023/11/18 19:10:34;;;;;;;4.47;2.17;;;9.80;99.90;;;;;;10093341;28;20025;-70
2023/11/18 19:15:26;;;;;;;2.25;1.83;;;9.80;99.90;;;;;;10087308;28;20029;-68
2023/11/18 19:20:17;;;;;;;3.90;1.77;;;9.80;99.90;;;;;;10084237;28;20044;-68
2023/11/18 19:25:08;;;;;;;2.58;1.52;;;9.90;99.90;;;;;;10073085;28;20021;-66
2023/11/18 19:29:59;;;;;;;2.13;1.38;;;9.90;99.90;;;;;;10071572;28;20036;-69
2023/11/18 19:34:49;;;;;;;3.28;1.48;;;9.90;99.90;;;;;;10079178;28;20060;-67
2023/11/18 19:39:40;;;;;;;2.63;1.50;;;9.90;99.90;;;;;;10082642;28;20132;-70
2023/11/18 19:44:31;;;;;;;1.75;1.20;;;9.90;99.90;;;;;;10088046;28;20021;-70
2023/11/18 19:49:21;;;;;;;5.18;1.30;;;9.90;99.90;;;;;;10065745;28;20084;-69
2023/11/18 19:54:12;;;;;;;2.92;1.30;;;10.00;99.90;;;;;;10077480;28;20032;-69
2023/11/18 19:59:04;;;;;;;2.63;0.98;;;10.00;99.90;;;;;;10071232;28;20631;-69
2023/11/18 20:03:55;;;;;;;3.38;1.10;;;10.00;99.90;;;;;;10072707;28;20459;-67
2023/11/18 20:08:45;;;;;;;1.50;0.90;;;10.00;99.90;;;;;;10091059;28;20174;-67
2023/11/18 20:13:36;;;;;;;1.83;1.00;;;10.00;99.90;;;;;;10077277;28;20131;-67
2023/11/18 20:18:27;;;;;;;1.38;0.80;;;10.00;99.90;;;;;;10090368;28;20740;-66
2023/11/18 20:23:17;;;;;;;1.40;0.88;;;10.00;99.90;;;;;;10092809;28;20102;-68
2023/11/18 20:28:08;;;;;;;1.90;1.10;;;9.90;99.90;;;;;;10086704;28;20497;-68
2023/11/18 20:32:59;;;;;;;2.67;0.88;;;9.90;99.90;;;;;;10094570;28;20115;-71
2023/11/18 20:37:52;;;;;;;2.40;1.02;;;9.80;99.90;;;;;;10094203;28;20040;-67
2023/11/18 20:42:43;;;;;;;1.42;1.30;;;9.90;99.90;;;;;;10092190;28;20072;-67
2023/11/18 20:47:35;;;;;;;3.25;1.33;;;9.90;99.90;;;;;;10094092;28;20033;-68
2023/11/18 20:52:25;;;;;;;1.23;0.68;;;9.90;99.90;;;;;;10094129;28;20411;-70
2023/11/18 20:57:16;;;;;;;1.10;0.93;;;9.90;99.90;;;;;;10095305;28;20025;-70
2023/11/18 21:02:07;;;;;;;1.02;0.70;;;9.90;99.90;;;;;;10094859;28;20025;-70
2023/11/18 21:06:58;;;;;;;2.78;0.80;;;9.90;99.90;;;;;;10094983;28;20021;-70
2023/11/18 21:11:48;;;;;;;1.20;0.77;;;9.90;99.90;;;;;;10101817;28;20107;-70
2023/11/18 21:16:39;;;;;;;2.53;1.45;;;9.90;99.90;;;;;;10097530;28;20515;-70
2023/11/18 21:21:30;;;;;;;1.58;1.15;;;9.90;99.90;;;;;;10100058;28;20037;-70
2023/11/18 21:26:22;;;;;;;2.15;1.05;;;9.90;99.90;;;;;;10099866;28;20040;-72
2023/11/18 21:31:16;;;;;;;1.42;1.00;;;9.90;99.90;;;;;;10099143;28;21336;-67
2023/11/18 21:36:07;;;;;;;1.50;0.85;;;9.90;99.90;;;;;;10083475;28;20037;-76
2023/11/18 21:40:58;;;;;;;4.43;1.40;;;10.00;99.90;;;;;;10093382;28;20037;-70
2023/11/18 21:45:49;;;;;;;2.80;0.95;;;9.90;99.90;;;;;;10078324;28;20027;-70
2023/11/18 21:50:40;;;;;;;1.40;0.90;;;9.90;99.90;;;;;;10093654;28;20033;-71
2023/11/18 21:55:31;;;;;;;1.58;1.20;;;9.90;99.90;;;;;;10090536;28;20491;-69
2023/11/18 22:00:21;;;;;;;1.35;1.00;;;9.90;99.90;;;;;;10097085;28;20102;-70
2023/11/18 22:05:13;;;;;;;1.70;1.10;;;9.90;99.90;;;;;;10093278;28;20037;-70
2023/11/18 22:10:10;;;;;;;2.17;1.27;;;9.90;99.90;;;;;;10085398;28;20243;-75
2023/11/18 22:15:04;;;;;;;1.92;1.08;;;9.90;99.90;;;;;;10099179;28;20057;-70
2023/11/18 22:19:54;;;;;;;1.45;1.00;;;10.00;99.90;;;;;;10087507;28;20029;-71
2023/11/18 22:24:45;;;;;;;2.13;1.48;;;9.90;99.90;;;;;;10098141;28;20403;-71
2023/11/18 22:29:36;;;;;;;2.03;1.40;;;9.90;99.90;;;;;;10095824;28;20029;-70
2023/11/18 22:34:27;;;;;;;2.20;1.35;;;9.90;99.90;;;;;;10086376;28;20076;-74
2023/11/18 22:39:22;;;;;;;2.55;1.00;;;9.90;99.90;;;;;;10091405;28;20041;-70
2023/11/18 22:44:13;;;;;;;2.25;1.52;;;9.80;99.90;;;;;;10086965;28;20022;-71
2023/11/18 22:49:10;;;;;;;3.53;1.10;;;9.90;99.90;;;;;;10095512;28;20047;-70
2023/11/18 22:54:01;;;;;;;2.08;0.80;;;9.90;99.90;;;;;;10095775;28;20048;-72
2023/11/18 22:58:53;;;;;;;1.30;1.00;;;10.00;99.90;;;;;;10096929;28;20037;-72
2023/11/18 23:03:44;;;;;;;1.65;1.02;;;9.90;99.90;;;;;;10097036;28;20043;-72
2023/11/18 23:08:34;;;;;;;2.00;1.00;;;10.00;99.90;;;;;;10096457;28;20029;-76
2023/11/18 23:13:25;;;;;;;1.40;1.10;;;10.00;99.90;;;;;;10096905;28;20588;-72
2023/11/18 23:18:18;;;;;;;1.10;0.68;;;10.00;99.90;;;;;;10091879;28;20380;-75
2023/11/18 23:23:08;;;;;;;2.90;1.00;;;9.90;99.90;;;;;;10096077;28;20020;-71
2023/11/18 23:28:00;;;;;;;1.88;0.90;;;9.90;99.90;;;;;;10096342;28;20084;-80
2023/11/18 23:32:54;;;;;;;2.30;1.10;;;10.00;99.90;;;;;;10098422;28;20093;-72
2023/11/18 23:37:46;;;;;;;2.45;1.30;;;10.00;99.90;;;;;;10078713;28;20041;-80
2023/11/18 23:42:42;;;;;;;1.65;0.93;;;10.10;99.90;;;;;;10097492;28;20573;-80
2023/11/18 23:47:33;;;;;;;;;;;10.00;99.90;;;;;;10096560;28;20036;-77
2023/11/18 23:52:24;;;;;;;1.65;1.20;;;10.10;99.90;;;;;;10094573;28;19957;-80
2023/11/18 23:57:15;;;;;;;3.05;1.40;;;10.10;99.90;;;;;;10095597;28;20133;-74
